createdAt,value
2023-08-11T00:01:25.483Z,3.5
2023-08-11T00:03:25.279Z,3.6
2023-08-11T00:05:25.337Z,3.8
2023-08-11T00:09:26.666Z,4.0
2023-08-11T00:11:26.246Z,3.5
2023-08-11T00:13:24.959Z,4.0
2023-08-11T00:15:24.777Z,3.8
2023-08-11T00:17:24.571Z,4.5
2023-08-11T00:19:25.598Z,4.0
2023-08-11T00:21:24.510Z,3.4
2023-08-11T00:23:24.348Z,3.7
2023-08-11T00:25:24.098Z,4.5
2023-08-11T00:27:24.086Z,3.7
2023-08-11T00:31:23.673Z,3.8
2023-08-11T00:33:23.731Z,4.0
2023-08-11T00:35:23.661Z,3.9
2023-08-11T00:39:23.322Z,4.2
2023-08-11T00:41:23.111Z,3.9
2023-08-11T00:43:22.971Z,3.7
2023-08-11T00:45:23.711Z,4.2
2023-08-11T00:47:22.758Z,4.1
2023-08-11T00:49:23.176Z,3.9
2023-08-11T00:51:23.987Z,4.0
2023-08-11T00:53:22.608Z,4.2
2023-08-11T00:55:22.448Z,4.5
2023-08-11T00:57:23.091Z,4.1
2023-08-11T00:59:22.028Z,4.4
2023-08-11T01:01:21.913Z,3.9
2023-08-11T01:03:21.804Z,4.5
2023-08-11T01:05:21.964Z,4.3
2023-08-11T01:07:27.513Z,4.6
2023-08-11T01:09:32.605Z,4.4
2023-08-11T01:11:29.930Z,4.1
2023-08-11T01:15:24.222Z,4.4
2023-08-11T01:17:21.482Z,3.9
2023-08-11T01:19:27.470Z,4.0
2023-08-11T01:21:24.416Z,3.7
2023-08-11T01:23:21.510Z,3.8
2023-08-11T01:25:21.095Z,4.4
2023-08-11T01:29:20.105Z,4.0
2023-08-11T01:31:20.192Z,4.3
2023-08-11T01:33:19.862Z,4.1
2023-08-11T01:37:19.689Z,3.7
2023-08-11T01:39:19.393Z,4.2
2023-08-11T01:41:19.341Z,3.9
2023-08-11T01:43:20.276Z,4.2
2023-08-11T01:45:19.665Z,4.0
2023-08-11T01:47:19.745Z,4.1
2023-08-11T01:49:19.152Z,3.8
2023-08-11T01:51:18.724Z,4.0
2023-08-11T01:53:18.672Z,4.2
2023-08-11T01:55:18.487Z,4.6
2023-08-11T01:57:19.390Z,4.1
2023-08-11T01:59:18.201Z,4.7
2023-08-11T02:01:17.988Z,4.4
2023-08-11T02:03:18.087Z,4.3
2023-08-11T02:05:18.086Z,4.8
2023-08-11T02:07:17.553Z,4.4
2023-08-11T02:09:17.366Z,4.5
2023-08-11T02:11:17.375Z,3.9
2023-08-11T02:13:17.061Z,4.1
2023-08-11T02:15:16.959Z,4.2
2023-08-11T02:19:16.616Z,3.9
2023-08-11T02:21:16.715Z,4.3
2023-08-11T02:23:16.226Z,4.2
2023-08-11T02:25:16.554Z,3.7
2023-08-11T02:27:17.348Z,4.4
2023-08-11T02:29:15.808Z,3.8
2023-08-11T02:31:15.665Z,4.0
2023-08-11T02:33:18.352Z,4.4
2023-08-11T02:35:17.166Z,4.3
2023-08-11T02:37:15.169Z,4.2
2023-08-11T02:41:15.021Z,4.3
2023-08-11T02:43:14.791Z,4.2
2023-08-11T02:45:15.251Z,4.0
2023-08-11T02:47:14.650Z,4.1
2023-08-11T02:49:14.317Z,3.8
2023-08-11T02:51:15.252Z,4.4
2023-08-11T02:53:14.451Z,4.1
2023-08-11T02:55:13.940Z,3.6
2023-08-11T02:57:13.657Z,3.9
2023-08-11T02:59:13.653Z,4.3
2023-08-11T03:01:14.366Z,4.0
2023-08-11T03:03:13.328Z,4.1
2023-08-11T03:05:14.801Z,4.2
2023-08-11T03:07:12.889Z,4.0
2023-08-11T03:09:12.626Z,4.8
2023-08-11T03:13:12.354Z,5.0
2023-08-11T03:15:12.050Z,4.7
2023-08-11T03:17:13.530Z,5.2
2023-08-11T03:19:11.803Z,4.6
2023-08-11T03:21:19.870Z,4.8
2023-08-11T03:23:11.457Z,4.9
2023-08-11T03:25:11.910Z,4.7
2023-08-11T03:27:12.231Z,5.2
2023-08-11T03:29:10.911Z,4.9
2023-08-11T03:31:10.926Z,4.6
2023-08-11T03:33:10.640Z,4.8
2023-08-11T03:35:10.619Z,4.7
2023-08-11T03:37:10.260Z,4.6
2023-08-11T03:39:10.213Z,4.5
2023-08-11T03:41:09.853Z,4.7
2023-08-11T03:43:09.781Z,4.4
2023-08-11T03:45:12.100Z,4.5
2023-08-11T03:47:09.828Z,4.3
2023-08-11T03:49:09.279Z,4.4
2023-08-11T03:53:08.848Z,3.8
2023-08-11T03:55:09.688Z,4.3
2023-08-11T03:57:08.874Z,4.0
2023-08-11T04:01:08.169Z,3.8
2023-08-11T04:03:09.434Z,4.1
2023-08-11T04:05:08.612Z,4.0
2023-08-11T04:07:07.639Z,3.8
2023-08-11T04:09:07.389Z,4.1
2023-08-11T04:11:07.367Z,3.9
2023-08-11T04:13:07.925Z,3.8
2023-08-11T04:15:07.351Z,3.7
2023-08-11T04:17:07.545Z,3.8
2023-08-11T04:19:06.311Z,3.9
2023-08-11T04:21:06.085Z,3.7
2023-08-11T04:23:06.090Z,4.0
2023-08-11T04:25:07.107Z,3.9
2023-08-11T04:27:05.518Z,4.0
2023-08-11T04:29:05.567Z,3.4
2023-08-11T04:31:06.225Z,3.9
2023-08-11T04:33:05.656Z,3.5
2023-08-11T04:35:06.301Z,3.6
2023-08-11T04:37:06.332Z,3.7
2023-08-11T04:39:05.807Z,3.5
2023-08-11T04:41:04.360Z,3.7
2023-08-11T04:43:04.363Z,3.9
2023-08-11T04:45:04.874Z,3.5
2023-08-11T04:47:03.864Z,3.3
2023-08-11T04:49:03.541Z,3.1
2023-08-11T04:51:03.506Z,3.3
2023-08-11T04:53:03.260Z,3.7
2023-08-11T04:55:03.394Z,3.1
2023-08-11T04:59:02.861Z,3.3
2023-08-11T05:01:03.870Z,3.2
2023-08-11T05:03:02.889Z,3.7
2023-08-11T05:05:03.491Z,3.5
2023-08-11T05:07:01.906Z,3.2
2023-08-11T05:09:02.967Z,3.9
2023-08-11T05:11:01.529Z,3.5
2023-08-11T05:13:01.103Z,3.4
2023-08-11T05:15:01.218Z,3.5
2023-08-11T05:17:03.813Z,3.1
2023-08-11T05:19:00.686Z,3.3
2023-08-11T05:21:00.494Z,3.4
2023-08-11T05:23:00.171Z,3.5
2023-08-11T05:25:02.692Z,3.2
2023-08-11T05:28:59.808Z,3.0
2023-08-11T05:31:01.150Z,3.3
2023-08-11T05:32:59.373Z,3.4
2023-08-11T05:34:59.214Z,3.5
2023-08-11T05:36:59.118Z,3.6
2023-08-11T05:38:58.869Z,3.2
2023-08-11T05:40:58.742Z,3.1
2023-08-11T05:42:58.709Z,3.0
2023-08-11T05:44:58.429Z,3.2
2023-08-11T05:50:58.030Z,3.1
2023-08-11T05:52:57.912Z,3.5
2023-08-11T05:54:57.724Z,3.3
2023-08-11T05:56:57.883Z,3.4
2023-08-11T05:58:57.589Z,3.1
2023-08-11T06:00:57.256Z,3.0
2023-08-11T06:02:57.401Z,3.2
2023-08-11T06:04:57.162Z,3.1
2023-08-11T06:06:57.079Z,3.2
2023-08-11T06:08:57.489Z,3.1
2023-08-11T06:10:56.752Z,2.9
2023-08-11T06:12:56.707Z,3.5
2023-08-11T06:14:56.481Z,3.3
2023-08-11T06:18:56.161Z,3.9
2023-08-11T06:20:56.198Z,3.3
2023-08-11T06:24:55.943Z,3.4
2023-08-11T06:26:55.935Z,3.2
2023-08-11T06:28:55.732Z,3.3
2023-08-11T06:30:58.385Z,3.0
2023-08-11T06:32:55.470Z,2.8
2023-08-11T06:34:55.391Z,3.4
2023-08-11T06:36:55.339Z,3.3
2023-08-11T06:38:55.201Z,3.0
2023-08-11T06:40:55.008Z,3.1
2023-08-11T06:42:54.978Z,4.3
2023-08-11T06:44:54.846Z,3.5
2023-08-11T06:46:54.768Z,3.2
2023-08-11T06:48:54.688Z,3.1
2023-08-11T06:50:56.654Z,3.3
2023-08-11T06:52:54.627Z,3.1
2023-08-11T06:56:54.526Z,2.9
2023-08-11T06:58:54.556Z,3.5
2023-08-11T07:00:54.451Z,3.1
2023-08-11T07:02:54.490Z,3.3
2023-08-11T07:04:54.291Z,3.2
2023-08-11T07:06:54.885Z,3.1
2023-08-11T07:08:54.098Z,3.0
2023-08-11T07:14:54.090Z,2.8
2023-08-11T07:16:54.025Z,2.9
2023-08-11T07:18:54.525Z,2.8
2023-08-11T07:20:55.467Z,3.1
2023-08-11T07:22:54.006Z,3.2
2023-08-11T07:26:53.885Z,2.7
2023-08-11T07:28:53.695Z,2.9
2023-08-11T07:30:53.716Z,2.7
2023-08-11T07:32:55.684Z,2.9
2023-08-11T07:34:54.023Z,3.4
2023-08-11T07:36:53.980Z,3.3
2023-08-11T07:38:56.034Z,3.0
2023-08-11T07:42:53.809Z,3.1
2023-08-11T07:44:53.808Z,3.0
2023-08-11T07:46:53.736Z,2.9
2023-08-11T07:54:53.988Z,2.7
2023-08-11T07:56:53.780Z,3.0
2023-08-11T07:58:53.685Z,2.9
2023-08-11T08:02:54.104Z,2.7
2023-08-11T08:06:54.280Z,2.8
2023-08-11T08:08:53.828Z,2.7
2023-08-11T08:10:53.814Z,2.5
2023-08-11T08:12:53.958Z,2.8
2023-08-11T08:14:53.876Z,3.2
2023-08-11T08:16:54.112Z,2.9
2023-08-11T08:22:54.095Z,3.0
2023-08-11T08:24:54.023Z,2.6
2023-08-11T08:26:54.844Z,2.8
2023-08-11T08:28:54.102Z,2.6
2023-08-11T08:30:54.772Z,2.7
2023-08-11T08:32:54.276Z,3.0
2023-08-11T08:34:54.279Z,2.7
2023-08-11T08:38:54.445Z,2.5
2023-08-11T08:40:54.895Z,2.8
2023-08-11T08:42:54.843Z,2.7
2023-08-11T08:44:54.838Z,2.8
2023-08-11T08:46:56.299Z,2.7
2023-08-11T08:49:04.152Z,3.1
2023-08-11T08:50:55.212Z,2.7
2023-08-11T08:52:55.604Z,2.8
2023-08-11T08:56:57.189Z,3.0
2023-08-11T08:58:56.034Z,2.5
2023-08-11T09:00:55.436Z,2.8
2023-08-11T09:02:56.716Z,2.7
2023-08-11T09:04:55.497Z,2.8
2023-08-11T09:06:56.166Z,2.4
2023-08-11T09:10:55.763Z,2.6
2023-08-11T09:12:55.827Z,2.7
2023-08-11T09:17:00.020Z,2.5
2023-08-11T09:18:56.153Z,2.7
2023-08-11T09:20:56.163Z,2.5
2023-08-11T09:22:56.256Z,2.7
2023-08-11T09:26:58.399Z,2.6
2023-08-11T09:28:56.524Z,2.8
2023-08-11T09:32:59.312Z,2.9
2023-08-11T09:34:56.853Z,2.8
2023-08-11T09:36:57.274Z,2.6
2023-08-11T09:39:06.019Z,2.9
2023-08-11T09:41:00.557Z,2.6
2023-08-11T09:42:57.802Z,2.7
2023-08-11T09:47:00.089Z,2.5
2023-08-11T09:48:57.692Z,2.7
2023-08-11T09:50:58.824Z,2.9
2023-08-11T09:52:58.980Z,2.6
2023-08-11T09:54:58.434Z,2.8
2023-08-11T09:56:59.650Z,2.6
2023-08-11T10:01:07.264Z,2.9
2023-08-11T10:03:01.721Z,2.7
2023-08-11T10:05:03.442Z,2.8
2023-08-11T10:07:00.704Z,2.7
2023-08-11T10:09:02.323Z,2.4
2023-08-11T10:10:59.524Z,2.7
2023-08-11T10:13:05.951Z,3.1
2023-08-11T10:14:59.686Z,2.7
2023-08-11T10:17:00.026Z,2.6
2023-08-11T10:19:01.008Z,2.5
2023-08-11T10:21:00.406Z,2.7
2023-08-11T10:23:01.948Z,2.5
2023-08-11T10:25:01.595Z,3.0
2023-08-11T10:27:00.453Z,2.7
2023-08-11T10:29:01.061Z,2.9
2023-08-11T10:31:04.998Z,2.8
2023-08-11T10:33:04.128Z,2.7
2023-08-11T10:39:03.955Z,2.6
2023-08-11T10:41:04.250Z,2.3
2023-08-11T10:43:03.546Z,2.8
2023-08-11T10:45:10.578Z,2.7
2023-08-11T10:49:23.971Z,2.3
2023-08-11T10:51:02.807Z,2.6
2023-08-11T10:53:06.652Z,2.5
2023-08-11T10:55:03.265Z,2.6
2023-08-11T10:57:03.668Z,2.8
2023-08-11T10:59:08.600Z,2.7
2023-08-11T11:01:04.112Z,2.6
2023-08-11T11:03:04.496Z,2.4
2023-08-11T11:05:07.775Z,2.5
2023-08-11T11:07:04.709Z,2.8
2023-08-11T11:09:04.230Z,2.3
2023-08-11T11:11:04.291Z,2.7
2023-08-11T11:13:04.383Z,2.6
2023-08-11T11:15:05.246Z,2.5
2023-08-11T11:17:06.333Z,2.7
2023-08-11T11:21:05.371Z,2.6
2023-08-11T11:25:06.864Z,2.7
2023-08-11T11:27:06.604Z,2.6
2023-08-11T11:31:06.676Z,2.8
2023-08-11T11:33:07.326Z,2.7
2023-08-11T11:35:08.818Z,2.5
2023-08-11T11:37:07.557Z,2.7
2023-08-11T11:41:10.053Z,2.5
2023-08-11T11:47:08.132Z,2.8
2023-08-11T11:49:19.519Z,2.9
2023-08-11T11:51:08.435Z,2.8
2023-08-11T11:53:08.680Z,2.7
2023-08-11T11:55:08.952Z,2.5
2023-08-11T11:57:11.497Z,2.8
2023-08-11T11:59:09.442Z,2.7
2023-08-11T12:01:11.812Z,2.5
2023-08-11T12:03:09.929Z,2.7
2023-08-11T12:07:27.712Z,2.6
2023-08-11T12:09:10.359Z,2.7
2023-08-11T12:11:12.123Z,2.6
2023-08-11T12:13:11.352Z,2.8
2023-08-11T12:15:13.548Z,3.0
2023-08-11T12:17:11.743Z,2.7
2023-08-11T12:19:12.636Z,2.6
2023-08-11T12:21:11.851Z,2.8
2023-08-11T12:23:12.212Z,2.9
2023-08-11T12:25:13.589Z,3.1
2023-08-11T12:27:12.601Z,2.5
2023-08-11T12:29:12.729Z,2.7
2023-08-11T12:31:14.225Z,2.5
2023-08-11T12:35:13.553Z,2.8
2023-08-11T12:37:14.370Z,2.6
2023-08-11T12:39:14.424Z,2.8
2023-08-11T12:43:15.243Z,2.6
2023-08-11T12:47:15.074Z,2.5
2023-08-11T12:49:15.368Z,2.7
2023-08-11T12:51:15.384Z,2.6
2023-08-11T12:53:15.788Z,2.5
2023-08-11T12:55:18.006Z,2.4
2023-08-11T12:57:16.469Z,2.3
2023-08-11T12:59:16.431Z,2.4
2023-08-11T13:03:16.942Z,2.5
2023-08-11T13:05:17.495Z,2.4
2023-08-11T13:07:18.001Z,2.2
2023-08-11T13:09:18.107Z,2.4
2023-08-11T13:11:18.279Z,2.5
2023-08-11T13:13:18.086Z,2.2
2023-08-11T13:15:18.351Z,2.4
2023-08-11T13:17:18.486Z,2.3
2023-08-11T13:19:18.629Z,2.4
2023-08-11T13:21:18.824Z,2.6
2023-08-11T13:23:19.199Z,2.3
2023-08-11T13:25:20.733Z,2.5
2023-08-11T13:27:19.710Z,2.4
2023-08-11T13:29:19.928Z,2.7
2023-08-11T13:31:20.150Z,2.5
2023-08-11T13:33:20.298Z,2.4
2023-08-11T13:35:20.483Z,2.6
2023-08-11T13:37:20.689Z,2.5
2023-08-11T13:39:21.311Z,2.7
2023-08-11T13:41:21.173Z,2.6
2023-08-11T13:43:22.336Z,2.5
2023-08-11T13:45:21.779Z,2.6
2023-08-11T13:49:22.172Z,2.4
2023-08-11T13:51:22.701Z,2.7
2023-08-11T13:53:22.896Z,2.4
2023-08-11T13:55:23.009Z,2.7
2023-08-11T13:57:23.439Z,2.5
2023-08-11T13:59:23.508Z,2.7
2023-08-11T14:01:23.842Z,2.4
2023-08-11T14:07:30.554Z,2.5
2023-08-11T14:09:24.693Z,2.4
2023-08-11T14:11:25.239Z,2.6
2023-08-11T14:13:28.104Z,2.4
2023-08-11T14:15:25.580Z,2.8
2023-08-11T14:17:26.125Z,2.7
2023-08-11T14:19:26.080Z,2.4
2023-08-11T14:21:26.374Z,2.7
2023-08-11T14:23:26.848Z,2.5
2023-08-11T14:25:27.037Z,2.6
2023-08-11T14:29:27.486Z,2.7
2023-08-11T14:31:27.563Z,2.6
2023-08-11T14:33:28.373Z,2.7
2023-08-11T14:35:28.173Z,2.5
2023-08-11T14:37:28.524Z,2.6
2023-08-11T14:39:28.666Z,2.5
2023-08-11T14:41:28.910Z,2.7
2023-08-11T14:43:29.908Z,2.4
2023-08-11T14:45:29.443Z,2.3
2023-08-11T14:47:29.912Z,2.6
2023-08-11T14:49:30.048Z,2.7
2023-08-11T14:51:30.302Z,2.4
2023-08-11T14:53:31.094Z,2.5
2023-08-11T14:55:30.682Z,2.4
2023-08-11T14:57:30.936Z,2.5
2023-08-11T14:59:31.521Z,2.4
2023-08-11T15:01:31.462Z,2.7
2023-08-11T15:03:31.696Z,2.5
2023-08-11T15:05:33.291Z,2.6
2023-08-11T15:07:32.315Z,2.4
2023-08-11T15:09:33.048Z,2.7
2023-08-11T15:11:32.619Z,2.6
2023-08-11T15:13:32.828Z,2.7
2023-08-11T15:15:33.138Z,2.8
2023-08-11T15:17:33.232Z,2.5
2023-08-11T15:19:33.658Z,2.6
2023-08-11T15:21:34.115Z,2.3
2023-08-11T15:23:35.237Z,2.6
2023-08-11T15:25:34.288Z,2.5
2023-08-11T15:27:35.337Z,2.8
2023-08-11T15:29:34.370Z,3.4
2023-08-11T15:31:34.768Z,3.3
2023-08-11T15:33:34.976Z,3.2
2023-08-11T15:35:36.542Z,3.6
2023-08-11T15:39:36.133Z,3.5
2023-08-11T15:45:35.934Z,3.7
2023-08-11T15:47:36.148Z,3.6
2023-08-11T15:49:36.294Z,3.9
2023-08-11T15:51:36.484Z,3.8
2023-08-11T15:53:36.828Z,3.6
2023-08-11T15:55:37.245Z,4.0
2023-08-11T15:57:37.041Z,3.9
2023-08-11T15:59:37.239Z,3.6
2023-08-11T16:01:38.938Z,3.9
2023-08-11T16:03:37.747Z,3.8
2023-08-11T16:05:37.786Z,4.4
2023-08-11T16:07:37.962Z,4.1
2023-08-11T16:09:38.345Z,4.4
2023-08-11T16:17:39.282Z,4.3
2023-08-11T16:19:39.241Z,4.6
2023-08-11T16:21:39.255Z,4.7
2023-08-11T16:23:39.713Z,4.9
2023-08-11T16:25:39.632Z,4.6
2023-08-11T16:27:40.160Z,4.5
2023-08-11T16:29:41.715Z,4.9
2023-08-11T16:31:40.269Z,4.4
2023-08-11T16:33:40.511Z,4.7
2023-08-11T16:35:40.491Z,4.2
2023-08-11T16:37:40.670Z,4.7
2023-08-11T16:39:40.849Z,4.5
2023-08-11T16:41:40.923Z,4.0
2023-08-11T16:43:41.305Z,4.6
2023-08-11T16:47:41.478Z,4.7
2023-08-11T16:49:41.691Z,4.8
2023-08-11T16:51:41.657Z,4.5
2023-08-11T16:53:42.029Z,4.6
2023-08-11T16:55:41.992Z,4.3
2023-08-11T16:57:42.145Z,4.8
2023-08-11T16:59:42.274Z,5.0
2023-08-11T17:01:42.584Z,4.8
2023-08-11T17:03:42.986Z,4.7
2023-08-11T17:05:42.635Z,4.9
2023-08-11T17:07:44.120Z,5.3
2023-08-11T17:09:43.417Z,5.2
2023-08-11T17:11:42.974Z,5.1
2023-08-11T17:13:47.051Z,5.3
2023-08-11T17:17:43.503Z,5.9
2023-08-11T17:19:43.638Z,5.4
2023-08-11T17:21:43.589Z,5.9
2023-08-11T17:23:43.715Z,5.6
2023-08-11T17:25:43.863Z,6.3
2023-08-11T17:29:44.958Z,6.1
2023-08-11T17:31:44.023Z,5.5
2023-08-11T17:33:44.075Z,5.6
2023-08-11T17:35:44.275Z,6.0
2023-08-11T17:39:44.378Z,5.7
2023-08-11T17:41:45.868Z,6.3
2023-08-11T17:43:44.509Z,5.9
2023-08-11T17:45:44.854Z,6.4
2023-08-11T17:47:46.626Z,6.2
2023-08-11T17:49:44.877Z,6.1
2023-08-11T17:51:45.023Z,6.3
2023-08-11T17:53:49.779Z,7.1
2023-08-11T17:55:46.691Z,7.0
2023-08-11T17:57:45.148Z,6.1
2023-08-11T17:59:45.215Z,6.5
2023-08-11T18:01:45.405Z,6.9
2023-08-11T18:03:45.508Z,6.8
2023-08-11T18:05:45.432Z,7.8
2023-08-11T18:07:45.697Z,6.9
2023-08-11T18:09:45.592Z,6.7
2023-08-11T18:11:45.664Z,7.0
2023-08-11T18:13:46.192Z,6.5
2023-08-11T18:17:45.833Z,7.0
2023-08-11T18:21:46.009Z,6.5
2023-08-11T18:23:46.699Z,6.8
2023-08-11T18:25:46.188Z,7.3
2023-08-11T18:27:46.835Z,7.2
2023-08-11T18:29:46.276Z,6.4
2023-08-11T18:33:46.558Z,6.5
2023-08-11T18:35:46.603Z,7.3
2023-08-11T18:37:46.880Z,6.0
2023-08-11T18:39:47.529Z,6.2
2023-08-11T18:41:46.703Z,6.3
2023-08-11T18:43:46.921Z,6.8
2023-08-11T18:45:46.954Z,6.5
2023-08-11T18:47:49.462Z,6.4
2023-08-11T18:49:47.211Z,6.2
2023-08-11T18:51:47.129Z,6.1
2023-08-11T18:53:47.237Z,5.8
2023-08-11T18:55:47.187Z,6.3
2023-08-11T18:59:47.326Z,6.2
2023-08-11T19:01:47.460Z,6.1
2023-08-11T19:03:47.730Z,6.0
2023-08-11T19:05:47.525Z,6.1
2023-08-11T19:07:47.528Z,6.0
2023-08-11T19:13:47.770Z,6.3
2023-08-11T19:15:47.976Z,6.1
2023-08-11T19:17:47.793Z,6.3
2023-08-11T19:19:47.879Z,7.0
2023-08-11T19:21:47.972Z,6.5
2023-08-11T19:23:47.942Z,6.1
2023-08-11T19:25:50.050Z,6.8
2023-08-11T19:27:47.991Z,6.2
2023-08-11T19:29:48.712Z,6.6
2023-08-11T19:31:48.352Z,6.4
2023-08-11T19:33:48.142Z,6.6
2023-08-11T19:35:48.367Z,6.3
2023-08-11T19:37:48.085Z,7.0
2023-08-11T19:39:48.166Z,9.2
2023-08-11T19:41:48.305Z,7.3
2023-08-11T19:45:49.273Z,8.4
2023-08-11T19:47:48.299Z,6.9
2023-08-11T19:49:48.492Z,6.3
2023-08-11T19:51:49.036Z,6.8
2023-08-11T19:53:48.565Z,6.6
2023-08-11T19:55:48.629Z,6.1
2023-08-11T19:57:48.344Z,6.6
2023-08-11T19:59:48.626Z,7.1
2023-08-11T20:01:48.429Z,6.1
2023-08-11T20:03:48.359Z,6.7
2023-08-11T20:05:49.301Z,5.4
2023-08-11T20:07:48.674Z,5.8
2023-08-11T20:09:48.437Z,5.4
2023-08-11T20:11:48.677Z,6.9
2023-08-11T20:13:48.468Z,5.7
2023-08-11T20:15:54.716Z,5.9
2023-08-11T20:17:48.766Z,6.3
2023-08-11T20:19:48.589Z,5.8
2023-08-11T20:21:48.563Z,6.3
2023-08-11T20:23:48.562Z,6.2
2023-08-11T20:25:48.623Z,6.1
2023-08-11T20:27:48.706Z,6.7
2023-08-11T20:29:48.982Z,6.3
2023-08-11T20:33:48.950Z,6.5
2023-08-11T20:35:48.829Z,6.0
2023-08-11T20:37:48.766Z,5.9
2023-08-11T20:39:48.753Z,6.1
2023-08-11T20:41:49.089Z,5.8
2023-08-11T20:43:49.718Z,5.7
2023-08-11T20:45:48.998Z,6.5
2023-08-11T20:47:48.831Z,7.5
2023-08-11T20:49:49.010Z,6.9
2023-08-11T20:51:48.952Z,8.7
2023-08-11T20:53:48.961Z,7.5
2023-08-11T20:55:49.008Z,7.2
2023-08-11T20:57:49.040Z,7.3
2023-08-11T21:01:49.151Z,7.0
2023-08-11T21:03:51.226Z,7.4
2023-08-11T21:05:49.081Z,6.8
2023-08-11T21:07:49.148Z,6.7
2023-08-11T21:09:49.164Z,7.2
2023-08-11T21:11:49.001Z,6.9
2023-08-11T21:13:49.108Z,7.4
2023-08-11T21:15:49.313Z,7.2
2023-08-11T21:17:49.252Z,7.4
2023-08-11T21:21:49.049Z,8.1
2023-08-11T21:23:49.065Z,9.1
2023-08-11T21:25:49.672Z,8.5
2023-08-11T21:27:49.305Z,8.0
2023-08-11T21:29:49.102Z,7.7
2023-08-11T21:31:49.167Z,7.4
2023-08-11T21:35:49.080Z,7.6
2023-08-11T21:37:49.073Z,7.4
2023-08-11T21:39:49.084Z,7.3
2023-08-11T21:41:49.036Z,7.4
2023-08-11T21:43:49.988Z,7.3
2023-08-11T21:45:49.162Z,7.4
2023-08-11T21:49:49.214Z,7.2
2023-08-11T21:51:49.189Z,7.5
2023-08-11T21:53:49.172Z,7.3
2023-08-11T21:55:49.220Z,6.8
2023-08-11T21:57:49.299Z,7.3
2023-08-11T21:59:49.107Z,7.2
2023-08-11T22:01:50.033Z,7.3
2023-08-11T22:03:49.257Z,7.1
2023-08-11T22:07:49.233Z,6.8
2023-08-11T22:09:49.225Z,7.2
2023-08-11T22:11:49.247Z,6.9
2023-08-11T22:13:49.515Z,6.3
2023-08-11T22:15:49.848Z,7.1
2023-08-11T22:17:49.495Z,7.2
2023-08-11T22:19:49.081Z,6.7
2023-08-11T22:21:49.141Z,6.9
2023-08-11T22:23:49.073Z,6.3
2023-08-11T22:25:49.077Z,6.7
2023-08-11T22:27:48.979Z,6.4
2023-08-11T22:29:51.621Z,6.5
2023-08-11T22:31:48.901Z,6.0
2023-08-11T22:33:48.918Z,6.1
2023-08-11T22:35:48.952Z,6.4
2023-08-11T22:37:49.028Z,6.1
2023-08-11T22:39:49.720Z,6.2
2023-08-11T22:41:48.914Z,6.1
2023-08-11T22:43:48.813Z,6.5
2023-08-11T22:45:48.898Z,6.2
2023-08-11T22:47:50.110Z,6.5
2023-08-11T22:49:49.744Z,5.8
2023-08-11T22:51:49.036Z,6.4
2023-08-11T22:53:48.859Z,6.6
2023-08-11T22:55:48.814Z,6.8
2023-08-11T22:57:49.164Z,6.6
2023-08-11T22:59:49.501Z,7.0
2023-08-11T23:01:48.879Z,7.2
2023-08-11T23:03:49.040Z,6.6
2023-08-11T23:05:49.109Z,7.5
2023-08-11T23:07:51.504Z,7.6
2023-08-11T23:11:48.947Z,7.4
2023-08-11T23:13:48.928Z,8.3
2023-08-11T23:15:49.056Z,8.5
2023-08-11T23:17:48.885Z,8.4
2023-08-11T23:19:49.353Z,8.6
2023-08-11T23:21:48.978Z,8.4
2023-08-11T23:23:48.888Z,8.6
2023-08-11T23:25:49.166Z,8.2
2023-08-11T23:27:48.852Z,8.7
2023-08-11T23:29:48.844Z,8.8
2023-08-11T23:31:48.863Z,8.1
2023-08-11T23:33:48.986Z,7.6
2023-08-11T23:35:49.103Z,7.3
2023-08-11T23:37:48.834Z,7.5
2023-08-11T23:39:48.970Z,7.3
2023-08-11T23:41:48.758Z,6.5
2023-08-11T23:43:48.825Z,6.4
2023-08-11T23:45:49.008Z,6.2
2023-08-11T23:47:48.755Z,6.6
2023-08-11T23:49:48.824Z,5.9
2023-08-11T23:51:48.694Z,6.1
2023-08-11T23:53:48.842Z,6.0
2023-08-11T23:55:48.652Z,6.5
2023-08-11T23:57:48.491Z,5.8
2023-08-11T23:59:48.560Z,5.9
